This is the latest recevied weather packets stored in our database for station/object CT2IRJ-11. If no packets are shown the sender has not sent any weather packets the latest 10 day(s).
| Time | Temp. | Humidity | Pressure | Rain* | Wind** | Luminosity | Snow |
|---|---|---|---|---|---|---|---|
| 1777964009 | 10.56° C | 93% | 1017.3 hPa | 0 mm | - | 50 W/m² | - |
| 1777963709 | 9.44° C | 93% | 1016.6 hPa | 0 mm | - | 42 W/m² | - |
| 1777963410 | 9.44° C | 93% | 1016.9 hPa | 0 mm | - | 42 W/m² | - |
| 1777963110 | 9.44° C | 93% | 1016.9 hPa | 0 mm | - | 41 W/m² | - |
| 1777962810 | 8.89° C | 94% | 1016.9 hPa | 0 mm | - | 38 W/m² | - |
| 1777962510 | 8.89° C | 93% | 1016.6 hPa | 0 mm | - | 26 W/m² | - |
| 1777962210 | 8.33° C | 93% | 1016.9 hPa | 0 mm | - | 23 W/m² | - |
| 1777961910 | 8.33° C | 93% | 1016.9 hPa | 0 mm | - | 20 W/m² | - |
| 1777961610 | 8.33° C | 93% | 1016.6 hPa | 0 mm | - | 15 W/m² | - |
| 1777961309 | 8.33° C | 93% | 1016.6 hPa | 0 mm | - | 15 W/m² | - |
| 1777960709 | 7.78° C | 93% | 1016.6 hPa | 0 mm | - | 0 W/m² | - |
| 1777960409 | 7.78° C | 93% | 1016.9 hPa | 0 mm | - | 0 W/m² | - |
| 1777960112 | 7.78° C | 93% | 1016.6 hPa | 0 mm | - | 0 W/m² | - |
| 1777959810 | 7.78° C | 93% | 1016.6 hPa | 0 mm | - | 0 W/m² | - |
| 1777959509 | 7.78° C | 93% | 1016.6 hPa | 0 mm | - | 0 W/m² | - |
| 1777959210 | 7.78° C | 93% | 1016.6 hPa | 0 mm | - | 0 W/m² | - |
| 1777949610 | 8.33° C | 92% | 1016.6 hPa | 0 mm | - | 0 W/m² | - |
| 1777949310 | 8.33° C | 92% | 1016.6 hPa | 0 mm | - | 0 W/m² | - |
| 1777949009 | 8.33° C | 92% | 1016.9 hPa | 0 mm | - | 0 W/m² | - |
| 1777948709 | 8.33° C | 92% | 1016.6 hPa | 0 mm | - | 0 W/m² | - |
| 1777948409 | 8.33° C | 92% | 1016.6 hPa | 0 mm | - | 0 W/m² | - |
| 1777948110 | 8.33° C | 92% | 1016.9 hPa | 0 mm | - | 0 W/m² | - |
| 1777947809 | 8.33° C | 92% | 1016.9 hPa | 0 mm | - | 0 W/m² | - |
| 1777947509 | 8.33° C | 92% | 1017.3 hPa | 0 mm | - | 0 W/m² | - |
| 1777947209 | 8.33° C | 91% | 1016.9 hPa | 0 mm | - | 0 W/m² | - |
* Rain latest hour (hover to see other rain measurements)
** Current wind speed in m/s (hover to see current wind gust speed)